createdAt,value
2022-08-10T00:03:00.467Z,61.29
2022-08-10T00:06:03.689Z,60.73
2022-08-10T00:09:05.419Z,61.24
2022-08-10T00:12:07.224Z,61.26
2022-08-10T00:15:09.686Z,61.42
2022-08-10T00:18:11.346Z,61.78
2022-08-10T00:21:34.373Z,62.12
2022-08-10T00:24:39.117Z,62.51
2022-08-10T00:27:52.231Z,61.86
2022-08-10T00:31:04.064Z,61.99
2022-08-10T00:34:05.709Z,64.85
2022-08-10T00:37:08.753Z,62.72
2022-08-10T00:40:11.242Z,62.46
2022-08-10T00:43:12.917Z,63.67
2022-08-10T00:46:14.658Z,63.34
2022-08-10T00:49:16.417Z,63.54
2022-08-10T00:52:20.451Z,64.20
2022-08-10T00:55:22.166Z,64.45
2022-08-10T00:58:23.817Z,64.44
2022-08-10T01:02:10.741Z,67.39
2022-08-10T01:04:59.592Z,65.20
2022-08-10T01:08:20.582Z,63.55
2022-08-10T01:12:31.388Z,65.55
2022-08-10T01:14:55.341Z,65.54
2022-08-10T01:18:00.784Z,64.49
2022-08-10T01:21:31.005Z,65.96
2022-08-10T01:24:45.370Z,65.97
2022-08-10T01:27:53.943Z,66.34
2022-08-10T01:31:00.121Z,66.75
2022-08-10T01:34:03.733Z,66.89
2022-08-10T01:37:08.153Z,66.20
2022-08-10T01:40:10.719Z,67.68
2022-08-10T01:43:16.187Z,67.28
2022-08-10T01:46:19.454Z,66.59
2022-08-10T01:49:22.377Z,66.11
2022-08-10T01:52:25.811Z,66.45
2022-08-10T01:55:28.258Z,65.98
2022-08-10T01:58:31.081Z,65.92
2022-08-10T02:01:37.915Z,66.09
2022-08-10T02:04:41.612Z,64.62
2022-08-10T02:07:44.028Z,64.58
2022-08-10T02:10:46.428Z,64.96
2022-08-10T02:13:48.210Z,65.43
2022-08-10T02:16:51.947Z,66.81
2022-08-10T02:19:54.347Z,66.94
2022-08-10T02:22:56.791Z,66.93
2022-08-10T02:26:00.325Z,66.39
2022-08-10T02:29:02.260Z,68.24
2022-08-10T02:32:06.518Z,66.86
2022-08-10T02:35:18.621Z,69.36
2022-08-10T02:38:59.235Z,68.94
2022-08-10T02:42:18.794Z,70.62
2022-08-10T02:45:29.279Z,69.33
2022-08-10T02:48:37.597Z,69.34
2022-08-10T02:52:06.206Z,70.26
2022-08-10T02:55:17.025Z,68.40
2022-08-10T02:58:22.746Z,70.32
2022-08-10T03:01:28.758Z,70.22
2022-08-10T03:04:56.203Z,68.14
2022-08-10T03:08:00.042Z,70.02
2022-08-10T03:11:03.507Z,70.83
2022-08-10T03:14:06.659Z,71.20
2022-08-10T03:17:09.305Z,71.24
2022-08-10T03:20:37.686Z,69.88
2022-08-10T03:23:34.932Z,71.27
2022-08-10T03:26:37.287Z,70.06
2022-08-10T03:30:30.001Z,71.16
2022-08-10T03:33:02.650Z,68.66
2022-08-10T03:36:44.155Z,70.02
2022-08-10T03:39:28.148Z,68.57
2022-08-10T03:42:31.375Z,71.08
2022-08-10T03:45:54.537Z,70.09
2022-08-10T03:48:57.851Z,68.79
2022-08-10T03:52:04.244Z,70.83
2022-08-10T03:55:06.068Z,71.43
2022-08-10T03:58:07.967Z,71.77
2022-08-10T04:01:10.058Z,71.17
2022-08-10T04:04:12.879Z,71.88
2022-08-10T04:07:18.444Z,71.06
2022-08-10T04:10:20.097Z,71.02
2022-08-10T04:13:21.730Z,72.32
2022-08-10T04:16:23.343Z,71.53
2022-08-10T04:19:25.512Z,71.96
2022-08-10T04:22:29.063Z,72.34
2022-08-10T04:25:30.913Z,71.69
2022-08-10T04:28:33.000Z,73.58
2022-08-10T04:31:36.112Z,73.33
2022-08-10T04:34:40.625Z,73.32
2022-08-10T04:37:46.851Z,73.70
2022-08-10T04:40:49.544Z,73.09
2022-08-10T04:43:51.224Z,74.72
2022-08-10T04:46:57.810Z,73.59
2022-08-10T04:50:00.994Z,73.04
2022-08-10T04:53:05.488Z,73.63
2022-08-10T04:56:07.450Z,73.24
2022-08-10T04:59:09.844Z,73.02
2022-08-10T05:02:22.415Z,72.80
2022-08-10T05:05:33.209Z,72.75
2022-08-10T05:08:36.256Z,72.78
2022-08-10T05:11:37.951Z,72.90
2022-08-10T05:14:39.617Z,73.29
2022-08-10T05:18:08.726Z,74.43
2022-08-10T05:21:03.898Z,74.08
2022-08-10T05:24:07.443Z,74.70
2022-08-10T05:27:09.912Z,74.71
2022-08-10T05:30:13.373Z,73.92
2022-08-10T05:33:15.038Z,74.13
2022-08-10T05:36:17.256Z,75.20
2022-08-10T05:39:25.230Z,74.83
2022-08-10T05:42:32.412Z,75.33
2022-08-10T05:45:34.122Z,74.36
2022-08-10T05:49:00.522Z,74.73
2022-08-10T05:52:03.667Z,73.53
2022-08-10T05:55:07.572Z,74.98
2022-08-10T05:58:09.466Z,75.80
2022-08-10T06:01:12.875Z,74.23
2022-08-10T06:04:17.912Z,74.87
2022-08-10T06:07:21.912Z,74.48
2022-08-10T06:10:32.804Z,74.52
2022-08-10T06:13:59.652Z,73.93
2022-08-10T06:16:59.222Z,75.13
2022-08-10T06:20:01.268Z,74.35
2022-08-10T06:23:03.895Z,74.19
2022-08-10T06:26:11.887Z,74.08
2022-08-10T06:29:16.771Z,74.13
2022-08-10T06:32:18.835Z,72.64
2022-08-10T06:35:20.757Z,74.31
2022-08-10T06:38:23.968Z,73.89
2022-08-10T06:42:01.342Z,74.53
2022-08-10T06:44:55.609Z,75.10
2022-08-10T06:48:00.350Z,73.05
2022-08-10T06:51:03.413Z,73.49
2022-08-10T06:54:06.832Z,74.33
2022-08-10T06:57:18.671Z,74.97
2022-08-10T07:00:20.951Z,74.19
2022-08-10T07:03:26.343Z,72.87
2022-08-10T07:06:28.582Z,72.86
2022-08-10T07:09:31.946Z,73.41
2022-08-10T07:12:37.000Z,74.27
2022-08-10T07:15:59.661Z,72.53
2022-08-10T07:19:01.407Z,73.69
2022-08-10T07:22:03.676Z,73.06
2022-08-10T07:25:06.896Z,72.96
2022-08-10T07:28:10.837Z,72.24
2022-08-10T07:31:54.487Z,73.47
2022-08-10T07:34:36.101Z,73.96
2022-08-10T07:37:38.356Z,73.00
2022-08-10T07:40:42.486Z,73.63
2022-08-10T07:43:46.824Z,72.92
2022-08-10T07:46:50.353Z,70.95
2022-08-10T07:49:52.439Z,72.84
2022-08-10T07:52:55.831Z,72.16
2022-08-10T07:56:04.731Z,69.91
2022-08-10T07:59:17.522Z,71.03
2022-08-10T08:02:23.545Z,70.43
2022-08-10T08:05:55.075Z,72.91
2022-08-10T08:08:48.680Z,72.25
2022-08-10T08:11:51.631Z,70.08
2022-08-10T08:14:55.622Z,68.97
2022-08-10T08:18:00.725Z,68.90
2022-08-10T08:21:03.091Z,66.54
2022-08-10T08:24:32.278Z,65.94
2022-08-10T08:27:36.182Z,68.25
2022-08-10T08:30:48.810Z,67.43
2022-08-10T08:33:51.103Z,65.95
2022-08-10T08:36:57.333Z,67.43
2022-08-10T08:40:01.882Z,65.51
2022-08-10T08:43:22.196Z,65.96
2022-08-10T08:46:40.589Z,64.03
2022-08-10T08:50:07.585Z,64.72
2022-08-10T08:53:21.861Z,63.94
2022-08-10T08:56:28.610Z,62.90
2022-08-10T08:59:37.331Z,63.10
2022-08-10T09:02:55.118Z,60.94
2022-08-10T09:06:04.267Z,61.81
2022-08-10T09:09:15.737Z,61.36
2022-08-10T09:12:26.638Z,63.03
2022-08-10T09:15:39.596Z,59.47
2022-08-10T09:18:53.220Z,61.77
2022-08-10T09:22:13.387Z,60.31
2022-08-10T09:25:21.970Z,58.75
2022-08-10T09:28:26.855Z,59.80
2022-08-10T09:31:35.758Z,59.58
2022-08-10T09:36:20.697Z,57.98
2022-08-10T09:38:18.060Z,58.13
2022-08-10T09:41:25.209Z,57.23
2022-08-10T09:44:32.619Z,57.92
2022-08-10T09:48:01.167Z,57.44
2022-08-10T09:54:36.074Z,60.28
2022-08-10T09:57:46.059Z,59.76
2022-08-10T10:00:52.812Z,61.17
2022-08-10T10:03:59.706Z,57.69
2022-08-10T10:07:05.621Z,60.32
2022-08-10T10:10:09.249Z,59.15
2022-08-10T10:13:17.504Z,59.35
2022-08-10T10:16:37.008Z,59.10
2022-08-10T10:19:48.733Z,61.05
2022-08-10T10:22:56.603Z,58.25
2022-08-10T10:26:15.902Z,57.46
2022-08-10T10:29:57.193Z,59.31
2022-08-10T10:32:57.177Z,56.41
2022-08-10T10:35:59.652Z,57.91
2022-08-10T10:39:02.876Z,56.90
2022-08-10T10:42:14.750Z,56.48
2022-08-10T10:45:28.849Z,53.56
2022-08-10T10:48:36.331Z,55.14
2022-08-10T10:51:41.574Z,55.07
2022-08-10T10:54:50.490Z,56.34
2022-08-10T10:57:58.395Z,52.96
2022-08-10T11:01:06.152Z,54.05
2022-08-10T11:04:14.443Z,52.16
2022-08-10T11:07:22.886Z,52.57
2022-08-10T11:10:38.560Z,52.61
2022-08-10T11:14:24.895Z,50.37
2022-08-10T11:17:22.329Z,53.21
2022-08-10T11:20:26.458Z,50.52
2022-08-10T11:23:31.678Z,49.54
2022-08-10T11:26:36.637Z,50.65
2022-08-10T11:29:42.589Z,49.30
2022-08-10T11:32:54.836Z,48.65
2022-08-10T11:36:00.225Z,50.68
2022-08-10T11:39:18.946Z,48.59
2022-08-10T11:42:33.425Z,50.25
2022-08-10T11:45:51.368Z,47.26
2022-08-10T11:49:03.547Z,46.61
2022-08-10T11:52:08.941Z,49.55
2022-08-10T11:55:12.868Z,48.42
2022-08-10T11:58:21.264Z,49.31
2022-08-10T12:01:26.417Z,48.34
2022-08-10T12:04:28.970Z,47.72
2022-08-10T12:08:54.850Z,48.35
2022-08-10T12:10:54.338Z,47.91
2022-08-10T12:14:20.691Z,48.22
2022-08-10T12:17:25.172Z,48.52
2022-08-10T12:20:28.930Z,48.63
2022-08-10T12:23:39.286Z,48.29
2022-08-10T12:26:44.978Z,46.66
2022-08-10T12:29:50.586Z,47.10
2022-08-10T12:32:56.917Z,48.35
2022-08-10T12:36:17.878Z,46.18
2022-08-10T12:39:22.174Z,44.91
2022-08-10T12:42:38.715Z,47.06
2022-08-10T12:45:50.813Z,46.77
2022-08-10T12:48:56.989Z,46.93
2022-08-10T12:52:03.235Z,44.96
2022-08-10T12:55:05.372Z,46.20
2022-08-10T12:58:58.964Z,43.96
2022-08-10T13:02:10.427Z,45.29
2022-08-10T13:04:55.911Z,43.90
2022-08-10T13:08:03.723Z,41.75
2022-08-10T13:12:39.149Z,42.59
2022-08-10T13:14:48.006Z,45.65
2022-08-10T13:17:53.176Z,45.89
2022-08-10T13:21:00.175Z,43.60
2022-08-10T13:24:05.329Z,41.48
2022-08-10T13:27:24.706Z,42.98
2022-08-10T13:30:33.657Z,42.09
2022-08-10T13:34:39.448Z,38.74
2022-08-10T13:37:09.301Z,37.98
2022-08-10T13:40:11.586Z,39.85
2022-08-10T13:43:15.513Z,40.73
2022-08-10T13:46:22.243Z,39.48
2022-08-10T13:49:27.235Z,40.41
2022-08-10T13:52:29.670Z,38.65
2022-08-10T13:55:53.420Z,38.38
2022-08-10T13:58:53.832Z,39.02
2022-08-10T14:01:56.221Z,38.94
2022-08-10T14:04:59.776Z,37.97
2022-08-10T14:08:02.740Z,38.68
2022-08-10T14:11:10.936Z,38.55
2022-08-10T14:14:15.075Z,37.26
2022-08-10T14:17:18.877Z,38.17
2022-08-10T14:20:26.424Z,38.35
2022-08-10T14:23:28.048Z,37.34
2022-08-10T14:26:30.291Z,38.75
2022-08-10T14:29:33.227Z,37.46
2022-08-10T14:32:41.824Z,40.07
2022-08-10T14:36:21.464Z,38.15
2022-08-10T14:39:08.755Z,37.57
2022-08-10T14:42:24.103Z,36.99
2022-08-10T14:45:30.639Z,36.02
2022-08-10T14:48:33.873Z,36.79
2022-08-10T14:51:44.306Z,35.26
2022-08-10T14:54:48.787Z,35.62
2022-08-10T14:58:16.944Z,35.23
2022-08-10T15:01:17.826Z,35.82
2022-08-10T15:04:22.903Z,35.30
2022-08-10T15:07:27.550Z,35.48
2022-08-10T15:10:29.419Z,34.26
2022-08-10T15:13:34.407Z,34.06
2022-08-10T15:16:37.263Z,33.84
2022-08-10T15:20:04.311Z,34.50
2022-08-10T15:23:06.073Z,35.52
2022-08-10T15:26:11.017Z,35.02
2022-08-10T15:29:23.762Z,33.68
2022-08-10T15:32:33.522Z,34.94
2022-08-10T15:35:36.559Z,35.06
2022-08-10T15:38:41.626Z,34.33
2022-08-10T15:41:57.621Z,32.14
2022-08-10T15:45:01.615Z,32.58
2022-08-10T15:48:05.901Z,31.65
2022-08-10T15:51:12.525Z,32.23
2022-08-10T15:54:33.600Z,33.04
2022-08-10T15:57:39.952Z,32.42
2022-08-10T16:00:45.885Z,31.31
2022-08-10T16:03:54.608Z,30.96
2022-08-10T16:06:59.197Z,29.55
2022-08-10T16:10:23.637Z,31.55
2022-08-10T16:13:50.133Z,30.98
2022-08-10T16:16:55.199Z,31.71
2022-08-10T16:19:57.714Z,29.49
2022-08-10T16:23:00.683Z,29.79
2022-08-10T16:26:15.149Z,29.11
2022-08-10T16:29:19.894Z,28.76
2022-08-10T16:32:22.240Z,29.98
2022-08-10T16:35:24.136Z,28.89
2022-08-10T16:38:26.304Z,28.83
2022-08-10T16:42:04.155Z,29.06
2022-08-10T16:44:52.997Z,30.66
2022-08-10T16:47:56.037Z,30.70
2022-08-10T16:50:59.382Z,30.29
2022-08-10T16:54:01.694Z,31.05
2022-08-10T16:57:05.708Z,30.08
2022-08-10T17:00:08.188Z,29.21
2022-08-10T17:04:04.437Z,29.09
2022-08-10T17:06:35.146Z,28.42
2022-08-10T17:09:38.532Z,27.59
2022-08-10T17:12:43.033Z,27.53
2022-08-10T17:15:49.052Z,27.46
2022-08-10T17:18:51.382Z,27.28
2022-08-10T17:21:55.297Z,27.94
2022-08-10T17:24:59.898Z,27.28
2022-08-10T17:28:09.677Z,28.49
2022-08-10T17:31:51.587Z,29.10
2022-08-10T17:34:40.339Z,27.34
2022-08-10T17:37:44.765Z,28.03
2022-08-10T17:40:48.162Z,28.80
2022-08-10T17:44:02.509Z,29.05
2022-08-10T17:47:10.934Z,29.15
2022-08-10T17:50:13.293Z,29.38
2022-08-10T17:53:16.220Z,30.83
2022-08-10T17:56:19.628Z,30.25
2022-08-10T17:59:24.595Z,31.35
2022-08-10T18:02:27.292Z,32.90
2022-08-10T18:05:30.783Z,33.78
2022-08-10T18:08:34.404Z,35.46
2022-08-10T18:11:41.622Z,36.25
2022-08-10T18:14:45.414Z,35.92
2022-08-10T18:17:48.834Z,36.31
2022-08-10T18:20:51.853Z,36.98
2022-08-10T18:23:54.134Z,37.36
2022-08-10T18:26:56.590Z,37.53
2022-08-10T18:30:03.714Z,38.57
2022-08-10T18:33:09.281Z,41.81
2022-08-10T18:36:11.981Z,41.42
2022-08-10T18:39:14.808Z,39.28
2022-08-10T18:42:19.567Z,38.01
2022-08-10T18:45:24.274Z,41.60
2022-08-10T18:48:33.173Z,40.15
2022-08-10T18:51:46.688Z,41.82
2022-08-10T18:54:49.864Z,41.72
2022-08-10T18:58:12.529Z,41.64
2022-08-10T19:01:32.429Z,42.68
2022-08-10T19:04:43.441Z,44.68
2022-08-10T19:08:04.388Z,41.65
2022-08-10T19:11:11.766Z,44.21
2022-08-10T19:14:16.434Z,46.64
2022-08-10T19:17:23.777Z,43.51
2022-08-10T19:20:30.731Z,44.37
2022-08-10T19:23:37.849Z,41.56
2022-08-10T19:26:45.956Z,43.31
2022-08-10T19:30:08.860Z,43.54
2022-08-10T19:33:22.286Z,43.94
2022-08-10T19:36:29.596Z,43.35
2022-08-10T19:39:50.356Z,46.35
2022-08-10T19:42:56.187Z,44.84
2022-08-10T19:46:03.215Z,42.28
2022-08-10T19:49:13.221Z,44.92
2022-08-10T19:52:19.388Z,45.60
2022-08-10T19:55:25.386Z,44.79
2022-08-10T19:58:32.519Z,44.40
2022-08-10T20:01:55.287Z,44.70
2022-08-10T20:05:02.859Z,46.40
2022-08-10T20:08:07.556Z,43.64
2022-08-10T20:11:11.184Z,42.88
2022-08-10T20:14:36.032Z,45.39
2022-08-10T20:17:51.397Z,46.09
2022-08-10T20:20:59.472Z,45.98
2022-08-10T20:24:04.398Z,44.10
2022-08-10T20:27:59.441Z,46.97
2022-08-10T20:30:34.655Z,43.40
2022-08-10T20:33:40.522Z,43.62
2022-08-10T20:36:48.253Z,45.90
2022-08-10T20:39:55.434Z,44.32
2022-08-10T20:43:03.613Z,43.52
2022-08-10T20:46:09.478Z,45.44
2022-08-10T20:49:16.172Z,45.02
2022-08-10T20:52:20.820Z,43.94
2022-08-10T20:55:23.304Z,47.39
2022-08-10T20:58:37.870Z,44.77
2022-08-10T21:02:06.229Z,46.87
2022-08-10T21:05:15.873Z,46.60
2022-08-10T21:08:22.827Z,44.75
2022-08-10T21:11:28.499Z,46.89
2022-08-10T21:17:39.007Z,46.16
2022-08-10T21:20:54.113Z,45.81
2022-08-10T21:24:01.595Z,46.13
2022-08-10T21:27:12.955Z,45.56
2022-08-10T21:30:17.373Z,46.02
2022-08-10T21:33:25.462Z,46.37
2022-08-10T21:36:30.656Z,46.56
2022-08-10T21:39:44.349Z,45.70
2022-08-10T21:42:49.728Z,44.79
2022-08-10T21:45:59.161Z,46.01
2022-08-10T21:49:03.747Z,46.60
2022-08-10T21:52:09.289Z,46.42
2022-08-10T21:55:21.651Z,46.30
2022-08-10T21:58:27.509Z,47.43
2022-08-10T22:01:39.161Z,47.68
2022-08-10T22:04:45.509Z,47.94
2022-08-10T22:07:50.497Z,48.39
2022-08-10T22:10:56.398Z,48.39
2022-08-10T22:14:01.732Z,47.96
2022-08-10T22:17:06.899Z,48.58
2022-08-10T22:20:31.235Z,50.08
2022-08-10T22:23:43.145Z,48.99
2022-08-10T22:27:01.266Z,49.46
2022-08-10T22:30:04.176Z,49.36
2022-08-10T22:33:23.791Z,50.70
2022-08-10T22:36:43.326Z,50.63
2022-08-10T22:40:07.208Z,51.04
2022-08-10T22:43:35.460Z,50.16
2022-08-10T22:46:40.832Z,50.49
2022-08-10T22:49:42.438Z,50.58
2022-08-10T22:53:01.898Z,51.65
2022-08-10T22:56:06.093Z,51.78
2022-08-10T22:59:09.880Z,53.11
2022-08-10T23:02:13.963Z,52.05
2022-08-10T23:05:16.732Z,52.02
2022-08-10T23:08:30.487Z,51.35
2022-08-10T23:11:35.625Z,52.02
2022-08-10T23:14:41.561Z,53.97
2022-08-10T23:18:03.186Z,53.00
2022-08-10T23:21:06.517Z,52.89
2022-08-10T23:24:09.336Z,53.24
2022-08-10T23:27:13.245Z,52.97
2022-08-10T23:30:36.291Z,52.48
2022-08-10T23:33:38.864Z,52.94
2022-08-10T23:36:41.172Z,53.39
2022-08-10T23:39:44.448Z,54.96
2022-08-10T23:42:48.646Z,55.09
2022-08-10T23:45:54.423Z,54.26
2022-08-10T23:48:58.370Z,55.28
2022-08-10T23:52:00.735Z,54.05
2022-08-10T23:55:04.758Z,55.76
2022-08-10T23:58:07.357Z,56.03
